Time;durP1;ratioP1;P1;durP2;ratioP2;P2;SDS_P1;SDS_P2;PMS_P1;PMS_P2;Temp;Humidity;BMP_temperature;BMP_pressure;BME280_temperature;BME280_humidity;BME280_pressure;Samples;Min_cycle;Max_cycle;Signal;HPM_P1;HPM_P2
2021/03/18 00:00:14;;;;;;;5.55;4.55;;;;;21.30;101475.00;;;;2078383;28;20214;-47
2021/03/18 00:01:15;;;;;;;6.10;4.85;;;;;21.30;101475.00;;;;2078534;28;20210;-46
2021/03/18 00:02:16;;;;;;;4.90;4.05;;;;;21.30;101479.00;;;;2077855;28;20214;-47
2021/03/18 00:03:17;;;;;;;5.50;4.60;;;;;21.30;101480.00;;;;2078017;28;20194;-47
2021/03/18 00:04:17;;;;;;;5.70;4.30;;;;;21.30;101483.00;;;;2078878;28;20210;-47
2021/03/18 00:05:18;;;;;;;5.20;4.40;;;;;21.30;101480.00;;;;2078408;28;20456;-47
2021/03/18 00:06:18;;;;;;;4.93;4.40;;;;;21.30;101477.00;;;;2078402;28;20297;-47
2021/03/18 00:07:18;;;;;;;4.87;3.87;;;;;21.30;101475.00;;;;2078594;28;20214;-47
2021/03/18 00:08:19;;;;;;;5.07;4.43;;;;;21.30;101486.00;;;;2077660;28;20217;-47
2021/03/18 00:09:20;;;;;;;4.93;4.20;;;;;21.30;101474.00;;;;2077943;28;20217;-46
2021/03/18 00:10:20;;;;;;;6.60;4.60;;;;;21.30;101479.00;;;;2078293;28;20213;-47
2021/03/18 00:11:21;;;;;;;5.23;4.00;;;;;21.20;101474.00;;;;2078604;28;20271;-47
2021/03/18 00:12:22;;;;;;;5.53;4.22;;;;;21.20;101474.00;;;;2078517;28;20229;-47
2021/03/18 00:13:23;;;;;;;4.93;3.80;;;;;21.20;101481.00;;;;2078313;28;20288;-47
2021/03/18 00:14:24;;;;;;;4.03;3.63;;;;;21.20;101484.00;;;;2078570;28;20260;-47
2021/03/18 00:15:24;;;;;;;4.17;3.50;;;;;21.20;101485.00;;;;2078667;28;20348;-47
2021/03/18 00:16:25;;;;;;;4.30;3.87;;;;;21.20;101483.00;;;;2078535;28;20238;-47
2021/03/18 00:17:25;;;;;;;5.20;3.83;;;;;21.20;101485.00;;;;2078298;28;20206;-47
2021/03/18 00:18:29;;;;;;;4.33;3.83;;;;;21.20;101484.00;;;;2077636;28;20206;-46
2021/03/18 00:19:29;;;;;;;4.80;3.83;;;;;21.20;101484.00;;;;2078262;28;20225;-47
2021/03/18 00:20:29;;;;;;;5.10;3.60;;;;;21.20;101488.00;;;;2078661;28;20352;-46
2021/03/18 00:21:30;;;;;;;4.37;3.60;;;;;21.20;101490.00;;;;2078560;28;20276;-47
2021/03/18 00:22:30;;;;;;;5.43;3.70;;;;;21.20;101477.00;;;;2078493;28;20221;-47
2021/03/18 00:23:31;;;;;;;4.40;3.63;;;;;21.10;101485.00;;;;2077414;28;20217;-47
2021/03/18 00:24:31;;;;;;;8.63;3.57;;;;;21.00;101473.00;;;;2078945;28;20249;-45
2021/03/18 00:25:32;;;;;;;4.70;3.87;;;;;21.10;101484.00;;;;2079689;28;20221;-46
2021/03/18 00:26:32;;;;;;;5.20;3.60;;;;;21.00;101488.00;;;;2079823;28;20217;-46
2021/03/18 00:27:32;;;;;;;5.60;4.00;;;;;21.10;101485.00;;;;2079889;28;20702;-47
2021/03/18 00:28:33;;;;;;;5.37;4.03;;;;;21.10;101487.00;;;;2078120;28;20322;-46
2021/03/18 00:29:33;;;;;;;5.87;3.67;;;;;21.10;101483.00;;;;2079789;28;20214;-47
2021/03/18 00:30:33;;;;;;;5.30;3.53;;;;;21.20;101492.00;;;;2080136;28;20578;-45
2021/03/18 00:31:35;;;;;;;4.00;3.33;;;;;21.10;101483.00;;;;2080054;28;20214;-46
2021/03/18 00:32:35;;;;;;;5.63;3.75;;;;;21.10;101483.00;;;;2080028;28;20237;-47
2021/03/18 00:33:35;;;;;;;4.47;3.50;;;;;21.10;101488.00;;;;2079188;28;20651;-47
2021/03/18 00:34:36;;;;;;;4.10;3.53;;;;;21.20;101482.00;;;;2079469;28;20619;-45
2021/03/18 00:35:36;;;;;;;3.77;3.33;;;;;21.10;101486.00;;;;2079163;28;20237;-46
2021/03/18 00:36:36;;;;;;;3.70;3.03;;;;;21.10;101483.00;;;;2078876;28;20352;-47
2021/03/18 00:37:41;;;;;;;5.03;3.37;;;;;21.10;101487.00;;;;2078874;28;20218;-47
2021/03/18 00:38:41;;;;;;;3.85;3.10;;;;;21.10;101479.00;;;;2079620;28;20225;-45
2021/03/18 00:39:41;;;;;;;4.80;3.10;;;;;21.10;101477.00;;;;2080036;28;20301;-47
2021/03/18 00:40:43;;;;;;;4.17;3.60;;;;;21.10;101482.00;;;;2080073;28;20218;-47
2021/03/18 00:41:44;;;;;;;5.82;3.22;;;;;21.10;101491.00;;;;2079969;28;20937;-47
2021/03/18 00:42:51;;;;;;;4.90;3.33;;;;;21.10;101479.00;;;;2080049;28;20221;-46
2021/03/18 00:43:52;;;;;;;3.42;3.03;;;;;21.10;101485.00;;;;2080012;28;20221;-45
2021/03/18 00:44:52;;;;;;;3.80;3.30;;;;;21.00;101485.00;;;;2075093;28;20229;-46
2021/03/18 00:45:52;;;;;;;4.50;3.30;;;;;21.00;101491.00;;;;2078840;28;20217;-46
2021/03/18 00:46:53;;;;;;;3.57;3.27;;;;;21.10;101489.00;;;;2079360;28;20297;-47
2021/03/18 00:47:53;;;;;;;9.17;3.90;;;;;21.00;101486.00;;;;2076870;28;21127;-47
2021/03/18 00:48:54;;;;;;;5.93;3.37;;;;;21.00;101490.00;;;;2079287;28;20569;-47
2021/03/18 00:49:54;;;;;;;4.17;3.17;;;;;21.00;101492.00;;;;2080002;28;20214;-47
2021/03/18 00:50:56;;;;;;;3.50;3.07;;;;;21.10;101494.00;;;;2080010;28;20222;-45
2021/03/18 00:51:56;;;;;;;5.15;3.00;;;;;21.10;101498.00;;;;2079701;28;20732;-46
2021/03/18 00:52:57;;;;;;;4.43;3.40;;;;;21.00;101498.00;;;;2079261;28;20229;-46
2021/03/18 00:53:57;;;;;;;3.50;3.20;;;;;21.00;101495.00;;;;2079080;28;20226;-46
2021/03/18 00:54:57;;;;;;;3.97;3.47;;;;;21.00;101497.00;;;;2079479;28;20248;-47
2021/03/18 00:55:58;;;;;;;3.37;2.83;;;;;21.00;101501.00;;;;2079718;28;20786;-46
2021/03/18 00:56:58;;;;;;;5.70;3.77;;;;;21.00;101505.00;;;;2079868;28;20213;-47
2021/03/18 00:57:58;;;;;;;4.00;3.40;;;;;21.00;101501.00;;;;2078807;28;20214;-45
2021/03/18 00:58:59;;;;;;;4.20;2.93;;;;;21.00;101493.00;;;;2079777;28;20226;-47
2021/03/18 00:59:59;;;;;;;3.80;2.80;;;;;21.00;101499.00;;;;2079923;28;20225;-46
2021/03/18 01:01:00;;;;;;;3.73;3.20;;;;;21.00;101502.00;;;;2079932;28;20217;-46
2021/03/18 01:02:01;;;;;;;4.15;3.35;;;;;21.00;101502.00;;;;2079694;28;20206;-46
2021/03/18 01:03:01;;;;;;;3.43;3.13;;;;;21.00;101508.00;;;;2078805;28;20751;-46
2021/03/18 01:04:01;;;;;;;3.40;2.80;;;;;20.90;101512.00;;;;2079949;28;20242;-47
2021/03/18 01:05:06;;;;;;;5.10;3.10;;;;;21.00;101505.00;;;;2079987;28;20221;-46
2021/03/18 01:06:09;;;;;;;3.72;3.15;;;;;20.90;101515.00;;;;2079369;28;20260;-45
2021/03/18 01:07:09;;;;;;;5.88;3.22;;;;;21.00;101514.00;;;;2079649;28;20622;-49
2021/03/18 01:08:11;;;;;;;4.00;3.17;;;;;20.90;101503.00;;;;2078673;28;20214;-47
2021/03/18 01:09:11;;;;;;;3.42;2.80;;;;;20.90;101502.00;;;;2079800;28;20305;-45
2021/03/18 01:10:12;;;;;;;3.90;2.70;;;;;20.90;101493.00;;;;2079438;28;20560;-45
2021/03/18 01:11:30;;;;;;;3.70;2.93;;;;;20.90;101490.00;;;;2079259;28;20217;-47
2021/03/18 01:12:31;;;;;;;3.33;3.00;;;;;20.90;101496.00;;;;2079472;28;20225;-45
2021/03/18 01:13:32;;;;;;;3.60;3.30;;;;;20.90;101499.00;;;;2079824;28;20356;-46
2021/03/18 01:14:32;;;;;;;3.60;3.10;;;;;20.90;101502.00;;;;2079951;28;20210;-45
2021/03/18 01:15:32;;;;;;;4.13;3.27;;;;;20.90;101494.00;;;;2079721;28;21278;-47
2021/03/18 01:16:39;;;;;;;3.57;2.83;;;;;20.90;101499.00;;;;2079774;28;20651;-47
2021/03/18 01:17:39;;;;;;;2.97;2.67;;;;;20.90;101495.00;;;;2078398;28;20657;-45
2021/03/18 01:18:44;;;;;;;3.17;2.63;;;;;20.90;101493.00;;;;2079767;28;20226;-47
2021/03/18 01:19:44;;;;;;;3.33;2.92;;;;;20.90;101491.00;;;;2079644;28;20214;-47
2021/03/18 01:20:44;;;;;;;4.30;3.07;;;;;20.90;101503.00;;;;2079665;28;20214;-47
2021/03/18 01:21:46;;;;;;;5.83;3.47;;;;;20.90;101501.00;;;;2079420;28;20209;-46
2021/03/18 01:22:47;;;;;;;5.40;3.05;;;;;20.90;101496.00;;;;2079448;28;20218;-49
2021/03/18 01:23:47;;;;;;;3.57;3.17;;;;;20.90;101498.00;;;;2079519;28;20214;-48
2021/03/18 01:24:48;;;;;;;3.73;3.30;;;;;20.90;101501.00;;;;2079677;28;20230;-46
2021/03/18 01:25:48;;;;;;;4.43;3.27;;;;;20.90;101497.00;;;;2079515;28;20217;-46
2021/03/18 01:26:49;;;;;;;4.23;2.87;;;;;20.90;101500.00;;;;2079434;28;20962;-47
2021/03/18 01:27:49;;;;;;;4.30;3.13;;;;;20.80;101494.00;;;;2078481;28;20611;-46
2021/03/18 01:28:49;;;;;;;3.60;2.80;;;;;20.80;101500.00;;;;2079792;28;20206;-46
2021/03/18 01:29:51;;;;;;;3.27;2.97;;;;;20.80;101493.00;;;;2079249;28;20218;-46
2021/03/18 01:30:52;;;;;;;4.28;2.83;;;;;20.90;101504.00;;;;2079637;28;20214;-46
2021/03/18 01:31:52;;;;;;;3.63;2.92;;;;;20.90;101506.00;;;;2079107;28;20305;-48
2021/03/18 01:32:53;;;;;;;4.07;3.67;;;;;20.90;101500.00;;;;2079477;28;20830;-49
2021/03/18 01:33:53;;;;;;;3.43;3.13;;;;;20.80;101490.00;;;;2079586;28;20210;-49
2021/03/18 01:34:53;;;;;;;3.90;3.20;;;;;20.80;101504.00;;;;2079223;28;20202;-44
2021/03/18 01:35:54;;;;;;;5.57;3.10;;;;;20.90;101494.00;;;;2078953;28;20691;-46
2021/03/18 01:36:54;;;;;;;4.30;3.00;;;;;20.80;101494.00;;;;2079198;28;20675;-47
2021/03/18 01:37:54;;;;;;;3.80;3.37;;;;;20.80;101494.00;;;;2078336;28;20206;-46
2021/03/18 01:38:55;;;;;;;3.20;2.77;;;;;20.90;101494.00;;;;2079781;28;20949;-46
2021/03/18 01:39:56;;;;;;;3.90;3.50;;;;;20.80;101494.00;;;;2079443;28;20979;-46
2021/03/18 01:40:57;;;;;;;4.00;3.10;;;;;20.80;101492.00;;;;2079702;28;20221;-46
2021/03/18 01:41:57;;;;;;;3.80;3.00;;;;;20.80;101494.00;;;;2079473;28;20464;-47
2021/03/18 01:42:58;;;;;;;4.23;3.20;;;;;20.80;101492.00;;;;2079138;28;20471;-46
2021/03/18 01:43:58;;;;;;;2.77;2.47;;;;;20.80;101490.00;;;;2079440;28;20718;-47
2021/03/18 01:44:59;;;;;;;3.93;2.97;;;;;20.80;101489.00;;;;2079717;28;20205;-46
2021/03/18 01:45:59;;;;;;;3.63;2.80;;;;;20.80;101485.00;;;;2079460;28;20218;-47
2021/03/18 01:47:00;;;;;;;4.40;3.50;;;;;20.80;101491.00;;;;2078366;28;20217;-47
2021/03/18 01:48:00;;;;;;;3.80;3.00;;;;;20.80;101488.00;;;;2077713;28;20214;-45
2021/03/18 01:49:01;;;;;;;3.60;3.13;;;;;20.80;101495.00;;;;2078862;28;20218;-46
2021/03/18 01:50:03;;;;;;;3.50;3.20;;;;;20.80;101486.00;;;;2079418;28;20368;-46
2021/03/18 01:51:04;;;;;;;3.63;3.08;;;;;20.80;101485.00;;;;2079583;28;20492;-47
2021/03/18 01:52:04;;;;;;;4.07;2.83;;;;;20.80;101488.00;;;;2078968;28;20623;-46
2021/03/18 01:53:05;;;;;;;3.90;3.10;;;;;20.80;101482.00;;;;2079700;28;20214;-47
2021/03/18 01:54:05;;;;;;;3.07;2.77;;;;;20.80;101492.00;;;;2079449;28;20206;-45
2021/03/18 01:55:07;;;;;;;3.40;3.10;;;;;20.80;101486.00;;;;2079429;28;20202;-47
2021/03/18 01:56:08;;;;;;;3.72;3.00;;;;;20.80;101487.00;;;;2078642;28;20438;-47
2021/03/18 01:57:08;;;;;;;3.97;3.40;;;;;20.80;101489.00;;;;2078218;28;20297;-46
2021/03/18 01:58:09;;;;;;;3.57;2.90;;;;;20.80;101484.00;;;;2078556;28;20230;-46
2021/03/18 01:59:10;;;;;;;3.20;2.90;;;;;20.70;101487.00;;;;2078333;28;20217;-46
2021/03/18 02:00:10;;;;;;;3.20;2.67;;;;;20.70;101486.00;;;;2070739;28;20226;-47
2021/03/18 02:01:11;;;;;;;4.10;3.13;;;;;20.70;101481.00;;;;2070468;28;20305;-46
2021/03/18 02:02:12;;;;;;;3.23;2.93;;;;;20.70;101484.00;;;;2079296;28;20461;-46
2021/03/18 02:03:12;;;;;;;3.23;2.93;;;;;20.70;101485.00;;;;2079235;28;20465;-46
2021/03/18 02:04:12;;;;;;;3.50;3.20;;;;;20.70;101484.00;;;;2078752;28;20283;-45
2021/03/18 02:05:13;;;;;;;4.53;3.40;;;;;20.70;101482.00;;;;2078857;28;20218;-46
2021/03/18 02:06:13;;;;;;;3.70;2.97;;;;;20.70;101491.00;;;;2078292;28;20218;-47
2021/03/18 02:07:14;;;;;;;3.47;3.07;;;;;20.70;101486.00;;;;2079306;28;20230;-47
2021/03/18 02:08:14;;;;;;;3.60;3.10;;;;;20.70;101454.00;;;;2078443;28;20293;-47
2021/03/18 02:09:15;;;;;;;3.83;2.73;;;;;20.70;101488.00;;;;2079296;28;20220;-46
2021/03/18 02:10:15;;;;;;;3.27;2.80;;;;;20.70;101487.00;;;;2079133;28;20210;-46
2021/03/18 02:11:15;;;;;;;4.00;3.17;;;;;20.70;101486.00;;;;2079525;28;20713;-46
2021/03/18 02:12:16;;;;;;;3.53;3.23;;;;;20.70;101484.00;;;;2079091;28;20259;-46
2021/03/18 02:13:16;;;;;;;3.13;2.93;;;;;20.70;101485.00;;;;2079543;28;20214;-47
2021/03/18 02:14:16;;;;;;;2.90;2.70;;;;;20.70;101493.00;;;;2079247;28;20263;-47
2021/03/18 02:15:17;;;;;;;4.13;3.63;;;;;20.70;101483.00;;;;2078837;28;20210;-46
2021/03/18 02:16:17;;;;;;;4.10;2.83;;;;;20.70;101480.00;;;;2078605;28;20706;-46
2021/03/18 02:17:31;;;;;;;3.73;3.40;;;;;20.70;101481.00;;;;2078678;28;20679;-46
2021/03/18 02:19:09;;;;;;;3.42;3.13;;;;;20.70;101477.00;;;;2062526;28;20230;-46
2021/03/18 02:20:37;;;;;;;4.30;3.08;;;;;20.70;101473.00;;;;2072406;28;20213;-46
2021/03/18 02:21:37;;;;;;;3.30;2.90;;;;;20.60;101471.00;;;;2078939;28;20218;-46
2021/03/18 02:22:54;;;;;;;4.17;3.70;;;;;20.60;101472.00;;;;2079160;28;20228;-46
2021/03/18 02:24:25;;;;;;;3.30;3.05;;;;;20.70;101479.00;;;;2078793;28;20214;-51
2021/03/18 02:25:28;;;;;;;3.40;2.88;;;;;20.60;101477.00;;;;2078921;28;20237;-47
2021/03/18 02:26:28;;;;;;;4.75;3.00;;;;;20.60;101469.00;;;;2078189;28;20295;-47
2021/03/18 02:28:07;;;;;;;3.30;3.00;;;;;20.60;101469.00;;;;2078307;28;20210;-47
2021/03/18 02:29:38;;;;;;;3.30;3.00;;;;;20.60;101468.00;;;;2079428;28;20201;-46
2021/03/18 02:30:51;;;;;;;3.55;3.05;;;;;20.60;101467.00;;;;2078596;28;20279;-47
2021/03/18 02:32:23;;;;;;;4.35;3.25;;;;;20.60;101466.00;;;;2079183;28;20685;-45
2021/03/18 02:33:29;;;;;;;3.90;3.17;;;;;20.60;101462.00;;;;2078133;28;20220;-46
2021/03/18 02:34:54;;;;;;;3.33;3.03;;;;;20.60;101465.00;;;;2070876;28;20233;-46
2021/03/18 02:36:02;;;;;;;5.22;3.53;;;;;20.60;101477.00;;;;2078410;28;20218;-47
2021/03/18 02:37:10;;;;;;;3.35;3.05;;;;;20.60;101461.00;;;;2079059;28;20977;-46
2021/03/18 02:38:22;;;;;;;3.30;3.00;;;;;20.60;101461.00;;;;2069055;28;20214;-46
2021/03/18 02:39:27;;;;;;;4.25;2.78;;;;;20.60;101460.00;;;;2071835;28;20211;-47
2021/03/18 02:40:29;;;;;;;3.08;2.75;;;;;20.60;101453.00;;;;2070688;28;20880;-46
2021/03/18 02:41:32;;;;;;;6.10;3.05;;;;;20.60;101451.00;;;;2070669;28;20215;-46
2021/03/18 02:42:33;;;;;;;3.40;3.03;;;;;20.60;101456.00;;;;2070683;28;20260;-47
2021/03/18 02:43:40;;;;;;;4.75;3.20;;;;;20.60;101456.00;;;;2062259;28;20223;-45
2021/03/18 02:44:40;;;;;;;3.55;2.85;;;;;20.60;101440.00;;;;2055743;28;20216;-46
2021/03/18 02:45:52;;;;;;;3.47;3.17;;;;;20.60;101452.00;;;;2062011;28;20247;-46
2021/03/18 02:46:59;;;;;;;4.25;2.85;;;;;20.60;101446.00;;;;2075659;28;20218;-47
2021/03/18 02:48:00;;;;;;;2.88;2.53;;;;;20.60;101438.00;;;;2076337;28;20565;-49
2021/03/18 02:49:02;;;;;;;3.90;3.13;;;;;20.50;101446.00;;;;2069532;28;20233;-47
2021/03/18 02:50:03;;;;;;;3.20;2.90;;;;;20.50;101439.00;;;;2061947;28;20254;-46
2021/03/18 02:51:04;;;;;;;3.60;3.27;;;;;20.50;101443.00;;;;2078260;28;20583;-47
2021/03/18 02:52:04;;;;;;;4.00;2.93;;;;;20.60;101439.00;;;;2078726;28;20481;-47
2021/03/18 02:53:05;;;;;;;2.70;2.50;;;;;20.60;101443.00;;;;2078380;28;20868;-47
2021/03/18 02:54:07;;;;;;;3.10;2.80;;;;;20.50;101443.00;;;;2070216;28;20457;-47
2021/03/18 02:55:08;;;;;;;4.22;3.00;;;;;20.60;101441.00;;;;2078363;28;20264;-46
2021/03/18 02:56:09;;;;;;;3.83;3.30;;;;;20.50;101437.00;;;;2078830;28;20213;-47
2021/03/18 02:57:10;;;;;;;3.70;3.40;;;;;20.40;101436.00;;;;2078143;28;20299;-47
2021/03/18 02:58:12;;;;;;;4.55;3.58;;;;;20.50;101440.00;;;;2076900;28;20229;-47
2021/03/18 02:59:25;;;;;;;3.83;3.53;;;;;20.50;101434.00;;;;2078297;28;20210;-45
2021/03/18 03:00:26;;;;;;;3.40;3.10;;;;;20.50;101432.00;;;;2071564;28;20219;-46
2021/03/18 03:01:26;;;;;;;3.77;3.47;;;;;20.50;101437.00;;;;2062037;28;20211;-46
2021/03/18 03:02:28;;;;;;;3.73;3.40;;;;;20.50;101449.00;;;;2069884;28;20579;-46
2021/03/18 03:03:28;;;;;;;4.55;3.60;;;;;20.50;101435.00;;;;2078308;28;20245;-46
2021/03/18 03:04:29;;;;;;;4.20;3.70;;;;;20.50;101432.00;;;;2079002;28;20244;-47
2021/03/18 03:05:29;;;;;;;4.00;3.70;;;;;20.50;101422.00;;;;2061845;28;20243;-46
2021/03/18 03:06:30;;;;;;;3.93;3.63;;;;;20.50;101432.00;;;;2061760;28;20262;-46
2021/03/18 03:07:30;;;;;;;4.13;3.70;;;;;20.50;101432.00;;;;2078377;28;20217;-46
2021/03/18 03:08:30;;;;;;;3.27;2.97;;;;;20.50;101428.00;;;;2069061;28;20219;-47
2021/03/18 03:09:31;;;;;;;4.10;3.73;;;;;20.50;101442.00;;;;2069898;28;20218;-47
2021/03/18 03:10:31;;;;;;;4.00;3.60;;;;;20.50;101434.00;;;;2070130;28;20293;-51
2021/03/18 03:11:32;;;;;;;4.20;3.70;;;;;20.50;101444.00;;;;2070163;28;20210;-47
2021/03/18 03:12:33;;;;;;;3.70;3.35;;;;;20.50;101443.00;;;;2069815;28;20215;-46
2021/03/18 03:13:37;;;;;;;3.67;3.33;;;;;20.50;101441.00;;;;2070074;28;20219;-46
2021/03/18 03:14:40;;;;;;;3.83;3.53;;;;;20.50;101445.00;;;;2070588;28;20214;-46
2021/03/18 03:15:41;;;;;;;4.25;3.30;;;;;20.50;101453.00;;;;2078293;28;20237;-47
2021/03/18 03:16:41;;;;;;;3.10;2.90;;;;;20.40;101445.00;;;;2078706;28;20328;-45
2021/03/18 03:17:42;;;;;;;3.70;3.30;;;;;20.40;101448.00;;;;2068766;28;20218;-46
2021/03/18 03:18:43;;;;;;;3.53;3.23;;;;;20.40;101440.00;;;;2069908;28;20911;-47
2021/03/18 03:19:43;;;;;;;3.40;3.10;;;;;20.40;101452.00;;;;2078330;28;20221;-46
2021/03/18 03:20:44;;;;;;;4.33;3.40;;;;;20.40;101448.00;;;;2077906;28;20214;-46
2021/03/18 03:21:44;;;;;;;4.20;3.20;;;;;20.40;101449.00;;;;2070067;28;20214;-47
2021/03/18 03:22:44;;;;;;;3.90;3.53;;;;;20.40;101447.00;;;;2077934;28;20752;-47
2021/03/18 03:23:45;;;;;;;3.93;3.50;;;;;20.40;101442.00;;;;2077872;28;20612;-46
2021/03/18 03:24:45;;;;;;;3.70;3.40;;;;;20.40;101440.00;;;;2078041;28;20198;-46
2021/03/18 03:25:46;;;;;;;3.90;2.90;;;;;20.40;101446.00;;;;2078427;28;20201;-47
2021/03/18 03:26:46;;;;;;;3.60;3.30;;;;;20.40;101442.00;;;;2078074;28;20206;-47
2021/03/18 03:27:46;;;;;;;4.50;3.30;;;;;20.40;101433.00;;;;2077142;28;20294;-47
2021/03/18 03:28:47;;;;;;;3.63;3.33;;;;;20.40;101432.00;;;;2069822;28;20206;-46
2021/03/18 03:29:47;;;;;;;3.80;3.50;;;;;20.40;101438.00;;;;2069903;28;20323;-47
2021/03/18 03:30:48;;;;;;;3.43;3.13;;;;;20.40;101432.00;;;;2078689;28;20217;-47
2021/03/18 03:31:48;;;;;;;3.17;2.93;;;;;20.40;101440.00;;;;2078716;28;20237;-47
2021/03/18 03:32:49;;;;;;;3.67;3.23;;;;;20.40;101446.00;;;;2078474;28;20217;-47
2021/03/18 03:33:49;;;;;;;3.63;3.33;;;;;20.40;101437.00;;;;2078204;28;20232;-46
2021/03/18 03:34:49;;;;;;;3.80;3.13;;;;;20.40;101442.00;;;;2069893;28;20565;-46
2021/03/18 03:35:50;;;;;;;3.50;3.30;;;;;20.40;101437.00;;;;2078115;28;20351;-46
2021/03/18 03:36:51;;;;;;;3.60;3.30;;;;;20.40;101434.00;;;;2078283;28;20213;-45
2021/03/18 03:37:51;;;;;;;3.53;3.23;;;;;20.40;101437.00;;;;2077679;28;21279;-45
2021/03/18 03:38:51;;;;;;;4.03;3.63;;;;;20.40;101448.00;;;;2078776;28;20214;-46
2021/03/18 03:39:52;;;;;;;3.90;3.43;;;;;20.40;101441.00;;;;2078505;28;20233;-46
2021/03/18 03:40:52;;;;;;;4.50;3.40;;;;;20.40;101442.00;;;;2078573;28;20571;-46
2021/03/18 03:41:52;;;;;;;4.10;3.23;;;;;20.40;101451.00;;;;2078236;28;20225;-47
2021/03/18 03:42:53;;;;;;;3.53;3.13;;;;;20.40;101438.00;;;;2077802;28;20226;-47
2021/03/18 03:43:53;;;;;;;3.90;2.87;;;;;20.40;101438.00;;;;2078441;28;20222;-45
2021/03/18 03:44:54;;;;;;;3.70;3.30;;;;;20.40;101440.00;;;;2078189;28;20222;-46
2021/03/18 03:45:54;;;;;;;3.40;3.10;;;;;20.40;101441.00;;;;2077617;28;20568;-47
2021/03/18 03:46:54;;;;;;;3.30;3.00;;;;;20.30;101441.00;;;;2078165;28;20221;-46
2021/03/18 03:47:55;;;;;;;3.57;3.27;;;;;20.30;101442.00;;;;2077030;28;20217;-47
2021/03/18 03:48:55;;;;;;;3.63;3.27;;;;;20.30;101434.00;;;;2078191;28;20222;-46
2021/03/18 03:49:55;;;;;;;3.30;3.00;;;;;20.30;101436.00;;;;2077331;28;20309;-45
2021/03/18 03:50:56;;;;;;;3.43;3.13;;;;;20.30;101441.00;;;;2069323;28;20223;-46
2021/03/18 03:52:15;;;;;;;3.55;3.25;;;;;20.30;101446.00;;;;2069500;28;21192;-47
2021/03/18 03:53:26;;;;;;;3.50;3.20;;;;;20.30;101449.00;;;;2072061;28;20288;-46
2021/03/18 03:54:26;;;;;;;3.10;2.80;;;;;20.30;101449.00;;;;2071181;28;20301;-46
2021/03/18 03:55:39;;;;;;;3.73;3.30;;;;;20.30;101454.00;;;;2070084;28;20211;-47
2021/03/18 03:57:03;;;;;;;3.85;3.42;;;;;20.30;101456.00;;;;2069179;28;20214;-47
2021/03/18 03:58:34;;;;;;;4.18;3.33;;;;;20.30;101467.00;;;;2055556;28;20306;-47
2021/03/18 03:59:35;;;;;;;3.50;2.80;;;;;20.30;101470.00;;;;2062563;28;20214;-46
2021/03/18 04:00:36;;;;;;;3.35;3.05;;;;;20.30;101475.00;;;;2063431;28;20963;-46
2021/03/18 04:01:47;;;;;;;4.50;3.33;;;;;20.30;101466.00;;;;2071551;28;20308;-45
2021/03/18 04:02:47;;;;;;;3.75;3.40;;;;;20.30;101467.00;;;;2077934;28;20691;-47
2021/03/18 04:03:48;;;;;;;3.33;2.93;;;;;20.30;101464.00;;;;2063435;28;20219;-47
2021/03/18 04:04:48;;;;;;;3.47;3.13;;;;;20.30;101458.00;;;;2063466;28;20215;-47
2021/03/18 04:05:49;;;;;;;3.63;3.27;;;;;20.30;101451.00;;;;2055352;28;20709;-46
2021/03/18 04:06:54;;;;;;;4.33;3.50;;;;;20.30;101461.00;;;;2047309;28;20217;-45
2021/03/18 04:07:57;;;;;;;4.32;3.65;;;;;20.30;101463.00;;;;2055646;28;20216;-45
2021/03/18 04:08:58;;;;;;;3.50;3.20;;;;;20.30;101456.00;;;;2055567;28;20251;-47
2021/03/18 04:09:59;;;;;;;5.30;3.70;;;;;20.30;101459.00;;;;2047754;28;20216;-46
2021/03/18 04:10:59;;;;;;;3.33;3.03;;;;;20.30;101464.00;;;;2063051;28;20628;-46
2021/03/18 04:12:00;;;;;;;4.00;3.00;;;;;20.30;101456.00;;;;2063278;28;20261;-45
2021/03/18 04:13:01;;;;;;;3.77;3.43;;;;;20.20;101457.00;;;;2063462;28;20223;-46
2021/03/18 04:14:05;;;;;;;3.33;3.03;;;;;20.30;101459.00;;;;2063435;28;20542;-45
2021/03/18 04:15:11;;;;;;;3.33;3.03;;;;;20.30;101459.00;;;;2071318;28;20222;-47
2021/03/18 04:16:11;;;;;;;3.38;3.08;;;;;20.30;101456.00;;;;2071215;28;20211;-47
2021/03/18 04:17:12;;;;;;;3.90;3.50;;;;;20.30;101453.00;;;;2055206;28;20763;-46
2021/03/18 04:18:12;;;;;;;3.10;2.73;;;;;20.30;101449.00;;;;2050062;28;20227;-47
2021/03/18 04:19:14;;;;;;;3.43;2.90;;;;;20.30;101456.00;;;;2071093;28;20215;-46
2021/03/18 04:20:15;;;;;;;3.15;2.85;;;;;20.30;101460.00;;;;2071049;28;20233;-46
2021/03/18 04:21:15;;;;;;;4.67;2.97;;;;;20.30;101451.00;;;;2063255;28;20211;-47
2021/03/18 04:22:16;;;;;;;3.20;2.90;;;;;20.20;101454.00;;;;2062574;28;20286;-46
2021/03/18 04:23:17;;;;;;;4.85;3.05;;;;;20.20;101448.00;;;;2071272;28;20241;-46
2021/03/18 04:24:18;;;;;;;3.80;3.03;;;;;20.20;101448.00;;;;2075036;28;20213;-47
2021/03/18 04:25:18;;;;;;;3.10;2.80;;;;;20.20;101445.00;;;;2079246;28;20202;-48
2021/03/18 04:26:21;;;;;;;3.60;3.00;;;;;20.20;101451.00;;;;2080121;28;20206;-45
2021/03/18 04:27:21;;;;;;;3.28;2.90;;;;;20.20;101448.00;;;;2071315;28;20306;-46
2021/03/18 04:28:21;;;;;;;3.53;3.20;;;;;20.20;101451.00;;;;2070078;28;20269;-46
2021/03/18 04:29:22;;;;;;;3.63;2.90;;;;;20.20;101449.00;;;;2070960;28;20272;-46
2021/03/18 04:30:24;;;;;;;3.40;3.10;;;;;20.20;101443.00;;;;2079625;28;20248;-47
2021/03/18 04:31:24;;;;;;;3.38;2.90;;;;;20.20;101445.00;;;;2078635;28;20242;-47
2021/03/18 04:32:25;;;;;;;4.40;3.13;;;;;20.20;101442.00;;;;2071289;28;20219;-47
2021/03/18 04:33:26;;;;;;;3.42;3.13;;;;;20.20;101448.00;;;;2062613;28;20203;-46
2021/03/18 04:34:27;;;;;;;4.45;3.10;;;;;20.20;101457.00;;;;2079508;28;20591;-45
2021/03/18 04:35:27;;;;;;;4.23;3.40;;;;;20.20;101449.00;;;;2079473;28;20209;-46
2021/03/18 04:36:28;;;;;;;3.30;3.00;;;;;20.20;101442.00;;;;2079333;28;20217;-46
2021/03/18 04:37:28;;;;;;;5.10;3.20;;;;;20.20;101443.00;;;;2063231;28;20207;-47
2021/03/18 04:38:29;;;;;;;3.00;2.70;;;;;20.20;101445.00;;;;2062355;28;20581;-45
2021/03/18 04:39:30;;;;;;;3.50;3.20;;;;;20.20;101449.00;;;;2071042;28;20206;-47
2021/03/18 04:40:30;;;;;;;3.00;2.70;;;;;20.20;101447.00;;;;2055150;28;20602;-47
2021/03/18 04:41:31;;;;;;;3.43;2.90;;;;;20.20;101442.00;;;;2069576;28;20211;-47
2021/03/18 04:42:31;;;;;;;2.93;2.73;;;;;20.20;101440.00;;;;2071175;28;20298;-45
2021/03/18 04:43:32;;;;;;;4.00;3.30;;;;;20.20;101436.00;;;;2071118;28;20229;-47
2021/03/18 04:44:33;;;;;;;3.10;2.80;;;;;20.20;101440.00;;;;2071270;28;20718;-46
2021/03/18 04:45:33;;;;;;;4.37;3.20;;;;;20.20;101447.00;;;;2071276;28;20273;-47
2021/03/18 04:46:34;;;;;;;3.00;2.70;;;;;20.20;101444.00;;;;2079096;28;20437;-46
2021/03/18 04:47:35;;;;;;;3.28;2.78;;;;;20.00;101424.00;;;;2071199;28;21071;-47
2021/03/18 04:48:37;;;;;;;3.50;2.80;;;;;20.20;101438.00;;;;2070085;28;20242;-47
2021/03/18 04:49:38;;;;;;;3.78;2.97;;;;;20.20;101433.00;;;;2079162;28;20214;-47
2021/03/18 04:50:38;;;;;;;4.00;2.63;;;;;20.20;101449.00;;;;2079766;28;20298;-47
2021/03/18 04:51:41;;;;;;;2.80;2.60;;;;;20.20;101443.00;;;;2080091;28;20452;-47
2021/03/18 04:52:41;;;;;;;3.15;2.85;;;;;20.20;101445.00;;;;2079250;28;20267;-46
2021/03/18 04:53:42;;;;;;;3.80;3.27;;;;;20.20;101440.00;;;;2071208;28;20277;-47
2021/03/18 04:54:42;;;;;;;3.43;2.70;;;;;20.20;101437.00;;;;2078637;28;20728;-47
2021/03/18 04:55:43;;;;;;;3.90;3.10;;;;;20.20;101438.00;;;;2070873;28;20281;-47
2021/03/18 04:56:44;;;;;;;3.10;2.80;;;;;20.20;101438.00;;;;2079206;28;20686;-47
2021/03/18 04:57:54;;;;;;;3.72;2.63;;;;;20.10;101433.00;;;;2078939;28;20210;-47
2021/03/18 04:58:54;;;;;;;2.90;2.70;;;;;20.10;101437.00;;;;2078810;28;20206;-47
2021/03/18 04:59:55;;;;;;;2.70;2.50;;;;;20.10;101441.00;;;;2079275;28;20206;-47
2021/03/18 05:00:56;;;;;;;3.33;2.87;;;;;20.10;101434.00;;;;2070953;28;20234;-47
2021/03/18 05:01:56;;;;;;;3.53;3.20;;;;;20.10;101431.00;;;;2063190;28;20208;-47
2021/03/18 05:03:02;;;;;;;3.10;2.70;;;;;20.10;101433.00;;;;2054641;28;20251;-47
2021/03/18 05:04:03;;;;;;;3.15;2.85;;;;;20.10;101422.00;;;;2063998;28;20230;-46
2021/03/18 05:05:04;;;;;;;3.87;2.83;;;;;20.10;101429.00;;;;2071004;28;20719;-47
2021/03/18 05:06:04;;;;;;;3.33;2.40;;;;;20.10;101424.00;;;;2071019;28;20207;-47
2021/03/18 05:07:05;;;;;;;5.23;3.10;;;;;20.10;101419.00;;;;2078899;28;20323;-47
2021/03/18 05:08:05;;;;;;;3.30;3.00;;;;;20.10;101425.00;;;;2078057;28;20214;-47